createdAt,value
2023-06-07T00:00:09.770Z,97046.38
2023-06-07T00:02:43.627Z,97053.31
2023-06-07T00:05:14.125Z,97052.69
2023-06-07T00:07:42.184Z,97051.19
2023-06-07T00:10:10.337Z,97051.59
2023-06-07T00:12:39.536Z,97048.16
2023-06-07T00:15:09.017Z,97048.34
2023-06-07T00:17:38.788Z,97050.53
2023-06-07T00:20:09.979Z,97054.47
2023-06-07T00:22:38.466Z,97040.13
2023-06-07T00:25:07.019Z,97046.47
2023-06-07T00:27:34.736Z,97033.13
2023-06-07T00:30:05.029Z,97041.16
2023-06-07T00:32:33.321Z,97040.31
2023-06-07T00:35:01.038Z,97038.28
2023-06-07T00:37:28.582Z,97035.84
2023-06-07T00:39:56.111Z,97037.44
2023-06-07T00:42:23.759Z,97028.44
2023-06-07T00:44:51.549Z,97037.19
2023-06-07T00:47:20.574Z,97031.66
2023-06-07T00:49:49.532Z,97041.44
2023-06-07T00:52:17.182Z,97035.97
2023-06-07T00:54:44.738Z,97041.88
2023-06-07T00:57:12.684Z,97035.34
2023-06-07T00:59:40.274Z,97031.44
2023-06-07T01:02:07.936Z,97032.22
2023-06-07T01:04:41.681Z,97030.34
2023-06-07T01:07:09.576Z,97032.78
2023-06-07T01:09:37.675Z,97036.84
2023-06-07T01:12:07.741Z,97037.03
2023-06-07T01:14:35.588Z,97028.41
2023-06-07T01:17:04.126Z,97038.31
2023-06-07T01:19:33.307Z,97041.75
2023-06-07T01:22:05.141Z,97034.59
2023-06-07T01:24:36.708Z,97032.00
2023-06-07T01:27:05.437Z,97031.44
2023-06-07T01:29:33.134Z,97027.94
2023-06-07T01:32:04.393Z,97031.84
2023-06-07T01:34:32.263Z,97033.94
2023-06-07T01:36:59.864Z,97032.28
2023-06-07T01:39:28.727Z,97034.94
2023-06-07T01:41:58.461Z,97032.69
2023-06-07T01:44:26.435Z,97032.09
2023-06-07T01:46:54.033Z,97035.56
2023-06-07T01:49:21.566Z,97037.03
2023-06-07T01:51:49.138Z,97031.72
2023-06-07T01:54:17.403Z,97029.63
2023-06-07T01:56:49.792Z,97036.41
2023-06-07T01:59:23.749Z,97036.25
2023-06-07T02:01:57.559Z,97040.56
2023-06-07T02:04:27.531Z,97031.81
2023-06-07T02:06:57.093Z,97033.72
2023-06-07T02:09:25.428Z,97031.88
2023-06-07T02:11:53.688Z,97036.63
2023-06-07T02:14:22.794Z,97042.16
2023-06-07T02:16:50.386Z,97046.06
2023-06-07T02:19:18.008Z,97045.63
2023-06-07T02:21:45.794Z,97051.41
2023-06-07T02:24:13.589Z,97044.88
2023-06-07T02:26:41.434Z,97045.69
2023-06-07T02:29:09.931Z,97046.94
2023-06-07T02:31:39.010Z,97050.03
2023-06-07T02:34:06.624Z,97049.22
2023-06-07T02:36:34.503Z,97043.50
2023-06-07T02:39:02.320Z,97044.13
2023-06-07T02:41:30.571Z,97041.06
2023-06-07T02:43:58.132Z,97045.19
2023-06-07T02:46:25.757Z,97041.72
2023-06-07T02:48:54.670Z,97041.69
2023-06-07T02:51:22.260Z,97031.91
2023-06-07T02:53:50.331Z,97032.09
2023-06-07T02:56:18.823Z,97027.59
2023-06-07T02:58:46.343Z,97030.28
2023-06-07T03:01:15.308Z,97024.13
2023-06-07T03:03:44.164Z,97026.38
2023-06-07T03:06:13.167Z,97027.00
2023-06-07T03:08:40.737Z,97028.63
2023-06-07T03:11:08.323Z,97033.53
2023-06-07T03:13:35.849Z,97023.53
2023-06-07T03:16:03.424Z,97029.25
2023-06-07T03:18:32.195Z,97039.47
2023-06-07T03:20:59.743Z,97032.53
2023-06-07T03:23:30.029Z,97030.50
2023-06-07T03:25:59.908Z,97040.94
2023-06-07T03:28:27.539Z,97029.47
2023-06-07T03:30:55.179Z,97036.81
2023-06-07T03:33:22.744Z,97031.72
2023-06-07T03:35:50.509Z,97035.63
2023-06-07T03:38:18.055Z,97036.44
2023-06-07T03:40:46.937Z,97035.41
2023-06-07T03:43:14.476Z,97035.59
2023-06-07T03:45:42.049Z,97035.22
2023-06-07T03:48:09.925Z,97045.22
2023-06-07T03:50:37.593Z,97031.13
2023-06-07T03:53:05.137Z,97038.28
2023-06-07T03:55:32.683Z,97037.88
2023-06-07T03:58:01.562Z,97042.19
2023-06-07T04:00:29.101Z,97036.44
2023-06-07T04:02:56.837Z,97031.34
2023-06-07T04:05:26.543Z,97036.66
2023-06-07T04:08:00.638Z,97026.41
2023-06-07T04:10:28.406Z,97034.38
2023-06-07T04:12:55.899Z,97039.72
2023-06-07T04:15:25.235Z,97039.72
2023-06-07T04:17:52.851Z,97036.44
2023-06-07T04:20:20.787Z,97045.25
2023-06-07T04:22:52.736Z,97041.97
2023-06-07T04:25:22.774Z,97037.84
2023-06-07T04:27:50.354Z,97044.81
2023-06-07T04:30:19.178Z,97050.97
2023-06-07T04:32:48.163Z,97048.91
2023-06-07T04:35:15.830Z,97055.28
2023-06-07T04:37:46.629Z,97048.91
2023-06-07T04:40:15.104Z,97058.56
2023-06-07T04:42:47.701Z,97054.25
2023-06-07T04:45:15.438Z,97044.00
2023-06-07T04:47:46.823Z,97051.19
2023-06-07T04:50:17.482Z,97045.25
2023-06-07T04:52:47.816Z,97043.97
2023-06-07T04:55:15.396Z,97041.31
2023-06-07T04:57:44.101Z,97039.69
2023-06-07T05:00:15.295Z,97042.16
2023-06-07T05:02:45.443Z,97043.19
2023-06-07T05:05:14.253Z,97050.34
2023-06-07T05:07:45.514Z,97047.66
2023-06-07T05:10:13.133Z,97046.84
2023-06-07T05:12:40.672Z,97054.81
2023-06-07T05:15:09.254Z,97049.25
2023-06-07T05:17:37.573Z,97049.63
2023-06-07T05:20:11.283Z,97049.16
2023-06-07T05:22:40.756Z,97050.91
2023-06-07T05:25:11.457Z,97059.09
2023-06-07T05:27:39.132Z,97062.78
2023-06-07T05:30:08.490Z,97066.88
2023-06-07T05:32:36.990Z,97065.84
2023-06-07T05:35:05.620Z,97059.50
2023-06-07T05:37:33.602Z,97058.09
2023-06-07T05:40:01.145Z,97059.25
2023-06-07T05:42:29.996Z,97063.63
2023-06-07T05:44:57.582Z,97064.13
2023-06-07T05:47:26.611Z,97070.34
2023-06-07T05:49:55.056Z,97054.66
2023-06-07T05:52:22.630Z,97068.28
2023-06-07T05:54:51.158Z,97065.88
2023-06-07T05:57:18.953Z,97060.91
2023-06-07T05:59:47.869Z,97048.78
2023-06-07T06:02:17.699Z,97052.69
2023-06-07T06:04:45.353Z,97059.06
2023-06-07T06:07:12.996Z,97058.03
2023-06-07T06:09:42.362Z,97055.69
2023-06-07T06:12:11.096Z,97055.47
2023-06-07T06:14:38.737Z,97053.59
2023-06-07T06:17:08.272Z,97056.97
2023-06-07T06:19:36.096Z,97056.59
2023-06-07T06:22:03.785Z,97062.19
2023-06-07T06:24:31.349Z,97063.06
2023-06-07T06:26:58.874Z,97062.31
2023-06-07T06:29:26.490Z,97058.88
2023-06-07T06:31:54.583Z,97061.63
2023-06-07T06:34:24.187Z,97059.84
2023-06-07T06:36:52.189Z,97068.41
2023-06-07T06:39:19.780Z,97073.28
2023-06-07T06:41:47.474Z,97081.78
2023-06-07T06:44:15.007Z,97067.91
2023-06-07T06:46:42.676Z,97070.72
2023-06-07T06:49:13.101Z,97073.03
2023-06-07T06:51:45.543Z,97073.88
2023-06-07T06:54:13.718Z,97071.31
2023-06-07T06:56:41.575Z,97072.34
2023-06-07T06:59:09.137Z,97069.88
2023-06-07T07:01:47.853Z,97074.56
2023-06-07T07:04:16.636Z,97072.47
2023-06-07T07:06:45.846Z,97081.56
2023-06-07T07:09:14.334Z,97077.00
2023-06-07T07:11:42.134Z,97078.16
2023-06-07T07:14:09.688Z,97080.28
2023-06-07T07:16:39.141Z,97081.44
2023-06-07T07:19:06.956Z,97079.25
2023-06-07T07:21:34.484Z,97081.09
2023-06-07T07:24:03.453Z,97076.03
2023-06-07T07:26:31.012Z,97078.75
2023-06-07T07:28:58.662Z,97073.59
2023-06-07T07:31:26.274Z,97073.59
2023-06-07T07:33:53.993Z,97071.03
2023-06-07T07:36:22.573Z,97072.59
2023-06-07T07:38:50.197Z,97072.06
2023-06-07T07:41:19.421Z,97066.03
2023-06-07T07:43:47.262Z,97070.72
2023-06-07T07:46:15.228Z,97075.88
2023-06-07T07:48:42.779Z,97065.25
2023-06-07T07:51:10.499Z,97066.78
2023-06-07T07:53:38.010Z,97064.28
2023-06-07T07:56:06.019Z,97066.31
2023-06-07T07:58:34.901Z,97066.66
2023-06-07T08:01:02.640Z,97063.47
2023-06-07T08:03:30.854Z,97054.63
2023-06-07T08:05:58.682Z,97057.09
2023-06-07T08:08:26.192Z,97053.44
2023-06-07T08:10:53.950Z,97048.50
2023-06-07T08:13:21.493Z,97047.19
2023-06-07T08:15:50.452Z,97048.41
2023-06-07T08:18:18.362Z,97050.19
2023-06-07T08:20:46.331Z,97047.13
2023-06-07T08:23:13.961Z,97041.31
2023-06-07T08:25:41.709Z,97047.69
2023-06-07T08:28:10.154Z,97046.41
2023-06-07T08:30:37.725Z,97052.06
2023-06-07T08:33:07.079Z,97046.28
2023-06-07T08:35:34.640Z,97048.81
2023-06-07T08:38:02.181Z,97045.00
2023-06-07T08:40:31.269Z,97043.06
2023-06-07T08:42:58.791Z,97047.50
2023-06-07T08:45:26.413Z,97036.06
2023-06-07T08:47:55.886Z,97041.16
2023-06-07T08:50:25.570Z,97045.13
2023-06-07T08:52:55.871Z,97045.03
2023-06-07T08:55:23.570Z,97044.47
2023-06-07T08:57:53.594Z,97040.50
2023-06-07T09:00:23.652Z,97044.91
2023-06-07T09:02:53.813Z,97040.75
2023-06-07T09:05:21.772Z,97035.72
2023-06-07T09:07:50.949Z,97043.22
2023-06-07T09:10:19.437Z,97027.78
2023-06-07T09:12:47.628Z,97030.88
2023-06-07T09:15:18.807Z,97037.44
2023-06-07T09:17:57.197Z,97035.09
2023-06-07T09:20:26.262Z,97042.41
2023-06-07T09:23:04.168Z,97039.72
2023-06-07T09:25:32.283Z,97036.44
2023-06-07T09:28:00.060Z,97026.56
2023-06-07T09:30:27.859Z,97035.19
2023-06-07T09:32:55.881Z,97033.69
2023-06-07T09:35:24.985Z,97030.00
2023-06-07T09:37:54.005Z,97028.81
2023-06-07T09:40:24.342Z,97034.06
2023-06-07T09:42:59.384Z,97026.25
2023-06-07T09:45:28.042Z,97028.16
2023-06-07T09:48:05.857Z,97034.66
2023-06-07T09:50:33.569Z,97031.50
2023-06-07T09:53:02.546Z,97026.31
2023-06-07T09:55:32.436Z,97027.88
2023-06-07T09:58:00.980Z,97033.00
2023-06-07T10:00:28.923Z,97026.47
2023-06-07T10:03:06.687Z,97029.00
2023-06-07T10:05:35.304Z,97026.50
2023-06-07T10:08:03.208Z,97014.72
2023-06-07T10:10:32.618Z,97024.63
2023-06-07T10:13:00.941Z,97017.78
2023-06-07T10:15:30.390Z,97019.06
2023-06-07T10:18:02.451Z,97012.03
2023-06-07T10:20:32.094Z,97014.00
2023-06-07T10:23:04.651Z,97014.13
2023-06-07T10:25:38.584Z,97014.38
2023-06-07T10:28:12.535Z,97014.56
2023-06-07T10:30:44.663Z,97007.41
2023-06-07T10:33:12.558Z,97009.75
2023-06-07T10:35:40.578Z,97003.13
2023-06-07T10:38:09.398Z,97001.63
2023-06-07T10:40:38.510Z,97001.41
2023-06-07T10:43:06.423Z,96998.47
2023-06-07T10:45:33.963Z,96996.25
2023-06-07T10:48:35.952Z,96998.22
2023-06-07T10:51:03.930Z,96993.88
2023-06-07T10:53:50.818Z,96991.72
2023-06-07T10:56:32.451Z,96982.56
2023-06-07T10:59:20.897Z,96994.72
2023-06-07T11:01:50.300Z,96989.31
2023-06-07T11:04:52.191Z,96984.88
2023-06-07T11:07:22.197Z,96982.56
2023-06-07T11:09:50.873Z,96984.97
2023-06-07T11:12:51.659Z,96985.69
2023-06-07T11:15:26.694Z,96971.63
2023-06-07T11:17:55.882Z,96966.84
2023-06-07T11:20:53.868Z,96962.25
2023-06-07T11:23:29.340Z,96969.50
2023-06-07T11:26:00.088Z,96968.91
2023-06-07T11:28:29.124Z,96967.88
2023-06-07T11:30:58.934Z,96954.69
2023-06-07T11:33:27.632Z,96958.19
2023-06-07T11:35:57.261Z,96961.88
2023-06-07T11:38:27.264Z,96962.03
2023-06-07T11:40:55.233Z,96965.22
2023-06-07T11:43:25.013Z,96962.94
2023-06-07T11:45:54.101Z,96957.47
2023-06-07T11:48:23.296Z,96949.00
2023-06-07T11:50:50.986Z,96950.22
2023-06-07T11:53:18.495Z,96949.78
2023-06-07T11:55:47.091Z,96941.78
2023-06-07T11:58:14.934Z,96941.81
2023-06-07T12:00:44.852Z,96927.78
2023-06-07T12:03:13.933Z,96932.03
2023-06-07T12:05:44.571Z,96939.81
2023-06-07T12:08:14.696Z,96932.88
2023-06-07T12:10:42.267Z,96929.81
2023-06-07T12:13:12.099Z,96925.34
2023-06-07T12:15:43.531Z,96922.63
2023-06-07T12:18:15.143Z,96924.88
2023-06-07T12:20:44.515Z,96922.47
2023-06-07T12:23:13.180Z,96918.72
2023-06-07T12:25:42.726Z,96918.31
2023-06-07T12:28:13.176Z,96911.25
2023-06-07T12:30:42.608Z,96908.63
2023-06-07T12:33:14.423Z,96904.53
2023-06-07T12:35:48.706Z,96904.22
2023-06-07T12:38:16.586Z,96912.94
2023-06-07T12:40:44.194Z,96908.69
2023-06-07T12:43:11.773Z,96905.72
2023-06-07T12:45:39.445Z,96899.97
2023-06-07T12:48:07.452Z,96892.56
2023-06-07T12:50:35.155Z,96899.91
2023-06-07T12:53:04.115Z,96891.94
2023-06-07T12:55:31.867Z,96889.81
2023-06-07T12:58:00.367Z,96887.31
2023-06-07T13:00:28.093Z,96889.66
2023-06-07T13:02:55.755Z,96889.50
2023-06-07T13:05:23.564Z,96880.75
2023-06-07T13:07:51.666Z,96885.09
2023-06-07T13:10:20.763Z,96878.50
2023-06-07T13:12:48.539Z,96875.03
2023-06-07T13:15:16.095Z,96872.06
2023-06-07T13:17:43.980Z,96869.13
2023-06-07T13:20:12.501Z,96861.00
2023-06-07T13:22:40.051Z,96871.91
2023-06-07T13:25:08.760Z,96862.50
2023-06-07T13:27:38.317Z,96858.31
2023-06-07T13:30:09.211Z,96855.66
2023-06-07T13:32:36.928Z,96852.78
2023-06-07T13:35:04.665Z,96861.13
2023-06-07T13:37:32.229Z,96851.94
2023-06-07T13:39:59.994Z,96852.56
2023-06-07T13:42:27.572Z,96850.28
2023-06-07T13:44:56.461Z,96831.34
2023-06-07T13:47:24.338Z,96849.53
2023-06-07T13:49:53.774Z,96844.75
2023-06-07T13:52:21.583Z,96848.22
2023-06-07T13:54:49.446Z,96853.16
2023-06-07T13:57:17.084Z,96846.13
2023-06-07T13:59:45.804Z,96838.47
2023-06-07T14:02:16.074Z,96843.41
2023-06-07T14:04:44.277Z,96825.91
2023-06-07T14:07:11.955Z,96832.59
2023-06-07T14:09:39.490Z,96830.81
2023-06-07T14:12:09.444Z,96827.53
2023-06-07T14:14:37.080Z,96816.84
2023-06-07T14:17:04.626Z,96828.97
2023-06-07T14:19:33.528Z,96818.16
2023-06-07T14:22:01.163Z,96810.06
2023-06-07T14:24:28.721Z,96804.53
2023-06-07T14:26:56.393Z,96803.72
2023-06-07T14:29:23.985Z,96804.63
2023-06-07T14:31:51.737Z,96805.78
2023-06-07T14:34:19.257Z,96795.94
2023-06-07T14:36:48.208Z,96800.72
2023-06-07T14:39:15.778Z,96802.91
2023-06-07T14:41:43.321Z,96790.88
2023-06-07T14:44:10.925Z,96794.22
2023-06-07T14:46:38.658Z,96786.38
2023-06-07T14:49:06.232Z,96792.69
2023-06-07T14:51:33.800Z,96792.28
2023-06-07T14:54:06.044Z,96793.84
2023-06-07T14:56:33.833Z,96788.72
2023-06-07T14:59:01.586Z,96788.50
2023-06-07T15:01:29.242Z,96784.59
2023-06-07T15:03:56.831Z,96777.25
2023-06-07T15:06:24.449Z,96776.75
2023-06-07T15:08:54.696Z,96783.66
2023-06-07T15:11:23.661Z,96783.06
2023-06-07T15:13:51.659Z,96778.41
2023-06-07T15:16:19.393Z,96773.78
2023-06-07T15:18:46.945Z,96774.13
2023-06-07T15:21:14.519Z,96764.16
2023-06-07T15:23:42.307Z,96760.88
2023-06-07T15:26:09.885Z,96734.28
2023-06-07T15:28:38.732Z,96765.22
2023-06-07T15:31:06.318Z,96764.28
2023-06-07T15:33:34.277Z,96765.34
2023-06-07T15:36:01.776Z,96761.78
2023-06-07T15:38:31.315Z,96759.13
2023-06-07T15:40:59.259Z,96745.63
2023-06-07T15:43:26.880Z,96748.69
2023-06-07T15:45:55.785Z,96764.16
2023-06-07T15:48:24.285Z,96757.97
2023-06-07T15:50:52.094Z,96763.31
2023-06-07T15:53:19.963Z,96768.53
2023-06-07T15:55:48.013Z,96753.28
2023-06-07T15:58:15.544Z,96759.72
2023-06-07T16:00:47.257Z,96753.28
2023-06-07T16:03:16.612Z,96766.19
2023-06-07T16:05:44.498Z,96776.69
2023-06-07T16:08:14.310Z,96765.09
2023-06-07T16:10:42.452Z,96775.22
2023-06-07T16:13:10.128Z,96766.16
2023-06-07T16:15:37.976Z,96758.59
2023-06-07T16:18:06.039Z,96771.44
2023-06-07T16:20:34.999Z,96768.38
2023-06-07T16:23:02.620Z,96783.38
2023-06-07T16:25:30.235Z,96781.00
2023-06-07T16:27:57.799Z,96789.66
2023-06-07T16:30:26.551Z,96798.59
2023-06-07T16:32:55.071Z,96790.00
2023-06-07T16:35:23.001Z,96799.94
2023-06-07T16:37:51.912Z,96802.91
2023-06-07T16:40:19.531Z,96789.97
2023-06-07T16:42:47.209Z,96801.56
2023-06-07T16:45:14.738Z,96809.94
2023-06-07T16:47:42.373Z,96812.91
2023-06-07T16:50:11.084Z,96804.28
2023-06-07T16:52:38.609Z,96813.44
2023-06-07T16:55:08.804Z,96810.72
2023-06-07T16:57:38.824Z,96813.66
2023-06-07T17:00:09.057Z,96810.09
2023-06-07T17:02:36.866Z,96818.47
2023-06-07T17:05:04.658Z,96803.06
2023-06-07T17:07:32.189Z,96814.94
2023-06-07T17:09:59.740Z,96814.69
2023-06-07T17:12:28.577Z,96803.06
2023-06-07T17:14:56.127Z,96805.72
2023-06-07T17:17:23.706Z,96804.94
2023-06-07T17:19:51.271Z,96795.72
2023-06-07T17:22:18.880Z,96800.53
2023-06-07T17:24:46.459Z,96800.22
2023-06-07T17:27:14.425Z,96792.59
2023-06-07T17:29:43.363Z,96801.09
2023-06-07T17:32:11.300Z,96799.47
2023-06-07T17:34:38.935Z,96802.06
2023-06-07T17:37:07.413Z,96806.03
2023-06-07T17:39:35.098Z,96810.31
2023-06-07T17:42:02.613Z,96812.16
2023-06-07T17:44:30.115Z,96807.06
2023-06-07T17:46:59.010Z,96812.47
2023-06-07T17:49:26.984Z,96813.31
2023-06-07T17:51:56.751Z,96809.00
2023-06-07T17:54:26.172Z,96812.84
2023-06-07T17:56:53.676Z,96799.69
2023-06-07T17:59:21.235Z,96797.22
2023-06-07T18:01:52.844Z,96801.22
2023-06-07T18:04:22.019Z,96802.78
2023-06-07T18:06:49.589Z,96805.16
2023-06-07T18:09:17.142Z,96806.19
2023-06-07T18:11:44.667Z,96799.50
2023-06-07T18:14:12.227Z,96804.34
2023-06-07T18:16:39.866Z,96802.72
2023-06-07T18:19:07.525Z,96805.38
2023-06-07T18:21:37.818Z,96805.13
2023-06-07T18:24:06.238Z,96809.44
2023-06-07T18:26:33.814Z,96808.06
2023-06-07T18:29:01.357Z,96806.09
2023-06-07T18:31:28.989Z,96806.03
2023-06-07T18:33:56.533Z,96809.13
2023-06-07T18:36:24.392Z,96818.50
2023-06-07T18:38:53.278Z,96813.00
2023-06-07T18:41:20.843Z,96822.41
2023-06-07T18:43:48.577Z,96816.97
2023-06-07T18:46:17.769Z,96823.06
2023-06-07T18:48:47.590Z,96821.94
2023-06-07T18:51:15.148Z,96822.41
2023-06-07T18:53:42.732Z,96827.47
2023-06-07T18:56:11.829Z,96819.56
2023-06-07T18:58:39.564Z,96829.47
2023-06-07T19:01:08.993Z,96825.09
2023-06-07T19:03:36.976Z,96819.03
2023-06-07T19:06:05.052Z,96827.59
2023-06-07T19:08:33.916Z,96830.66
2023-06-07T19:11:02.079Z,96830.50
2023-06-07T19:13:31.051Z,96825.25
2023-06-07T19:15:58.617Z,96839.31
2023-06-07T19:18:26.273Z,96836.22
2023-06-07T19:20:53.793Z,96836.06
2023-06-07T19:23:21.602Z,96841.28
2023-06-07T19:25:49.113Z,96839.47
2023-06-07T19:28:16.945Z,96844.53
2023-06-07T19:30:46.160Z,96848.41
2023-06-07T19:33:16.131Z,96849.63
2023-06-07T19:35:43.721Z,96854.31
2023-06-07T19:38:11.412Z,96844.09
2023-06-07T19:40:38.905Z,96845.63
2023-06-07T19:43:06.467Z,96849.50
2023-06-07T19:45:33.989Z,96848.13
2023-06-07T19:48:03.332Z,96850.25
2023-06-07T19:50:30.917Z,96860.13
2023-06-07T19:52:58.759Z,96861.28
2023-06-07T19:55:26.751Z,96869.00
2023-06-07T19:57:54.421Z,96860.97
2023-06-07T20:00:22.445Z,96861.38
2023-06-07T20:02:50.012Z,96868.97
2023-06-07T20:05:19.023Z,96871.75
2023-06-07T20:07:46.524Z,96872.34
2023-06-07T20:10:14.797Z,96870.72
2023-06-07T20:12:42.437Z,96873.38
2023-06-07T20:15:11.262Z,96874.00
2023-06-07T20:17:38.804Z,96867.97
2023-06-07T20:20:07.869Z,96877.50
2023-06-07T20:22:37.173Z,96876.38
2023-06-07T20:25:05.101Z,96877.78
2023-06-07T20:27:33.055Z,96880.09
2023-06-07T20:30:01.242Z,96875.00
2023-06-07T20:32:28.947Z,96870.69
2023-06-07T20:34:58.602Z,96875.59
2023-06-07T20:37:26.183Z,96873.59
2023-06-07T20:39:55.066Z,96873.97
2023-06-07T20:42:22.628Z,96880.72
2023-06-07T20:44:53.686Z,96877.69
2023-06-07T20:47:22.041Z,96882.81
2023-06-07T20:49:49.706Z,96884.19
2023-06-07T20:52:17.256Z,96875.31
2023-06-07T20:54:44.887Z,96879.53
2023-06-07T20:57:13.785Z,96890.22
2023-06-07T20:59:45.925Z,96884.97
2023-06-07T21:02:13.582Z,96885.78
2023-06-07T21:04:41.153Z,96897.84
2023-06-07T21:07:08.667Z,96886.91
2023-06-07T21:09:36.210Z,96893.31
2023-06-07T21:12:03.824Z,96893.72
2023-06-07T21:14:32.700Z,96896.16
2023-06-07T21:17:00.337Z,96894.84
2023-06-07T21:19:27.859Z,96902.72
2023-06-07T21:21:55.571Z,96901.97
2023-06-07T21:24:23.266Z,96895.91
2023-06-07T21:26:50.867Z,96897.41
2023-06-07T21:29:18.379Z,96901.56
2023-06-07T21:31:47.491Z,96897.69
2023-06-07T21:34:15.220Z,96906.38
2023-06-07T21:36:42.781Z,96901.03
2023-06-07T21:39:10.294Z,96904.28
2023-06-07T21:41:37.950Z,96905.78
2023-06-07T21:44:05.632Z,96896.59
2023-06-07T21:46:33.304Z,96891.69
2023-06-07T21:49:02.275Z,96899.44
2023-06-07T21:51:29.899Z,96896.53
2023-06-07T21:53:57.440Z,96894.28
2023-06-07T21:56:24.945Z,96893.56
2023-06-07T21:58:52.468Z,96891.66
2023-06-07T22:01:20.019Z,96893.94
2023-06-07T22:03:47.606Z,96893.19
2023-06-07T22:06:16.474Z,96898.16
2023-06-07T22:08:44.049Z,96899.88
2023-06-07T22:11:11.566Z,96898.44
2023-06-07T22:13:40.562Z,96894.88
2023-06-07T22:16:08.384Z,96904.78
2023-06-07T22:18:36.479Z,96899.47
2023-06-07T22:21:04.356Z,96902.56
2023-06-07T22:23:33.452Z,96897.44
2023-06-07T22:26:02.130Z,96899.28
2023-06-07T22:28:30.863Z,96887.97
2023-06-07T22:30:59.415Z,96894.97
2023-06-07T22:33:27.030Z,96890.69
2023-06-07T22:35:58.233Z,96877.47
2023-06-07T22:38:26.160Z,96885.47
2023-06-07T22:40:55.530Z,96879.97
2023-06-07T22:43:23.075Z,96886.50
2023-06-07T22:45:50.637Z,96886.31
2023-06-07T22:48:19.917Z,96885.25
2023-06-07T22:50:48.468Z,96893.06
2023-06-07T22:53:17.240Z,96887.03
2023-06-07T22:55:44.808Z,96886.00
2023-06-07T22:58:13.648Z,96891.31
2023-06-07T23:00:41.647Z,96883.53
2023-06-07T23:03:09.368Z,96892.41
2023-06-07T23:05:39.315Z,96894.66
2023-06-07T23:08:08.039Z,96897.94
2023-06-07T23:10:37.321Z,96895.28
2023-06-07T23:13:09.292Z,96897.13
2023-06-07T23:15:42.597Z,96886.78
2023-06-07T23:18:11.300Z,96899.84
2023-06-07T23:20:42.245Z,96897.59
2023-06-07T23:23:11.144Z,96894.38
2023-06-07T23:25:39.217Z,96888.00
2023-06-07T23:28:06.943Z,96896.88
2023-06-07T23:30:35.056Z,96901.44
2023-06-07T23:33:04.566Z,96895.31
2023-06-07T23:35:32.168Z,96899.00
2023-06-07T23:38:00.753Z,96905.56
2023-06-07T23:40:28.665Z,96898.78
2023-06-07T23:42:57.783Z,96898.16
2023-06-07T23:45:26.587Z,96899.00
2023-06-07T23:47:54.222Z,96895.34
2023-06-07T23:50:23.184Z,96903.34
2023-06-07T23:52:51.007Z,96903.19
2023-06-07T23:55:18.574Z,96905.66
2023-06-07T23:57:46.587Z,96904.03
